createdAt,value
2019-05-02T00:01:51.056Z,87139.78
2019-05-02T00:04:20.010Z,87145.77
2019-05-02T00:06:46.459Z,87142.30
2019-05-02T00:09:13.363Z,87139.41
2019-05-02T00:11:40.182Z,87135.65
2019-05-02T00:14:06.965Z,87135.17
2019-05-02T00:16:34.024Z,87130.21
2019-05-02T00:19:00.787Z,87126.36
2019-05-02T00:21:27.606Z,87124.08
2019-05-02T00:23:54.330Z,87121.59
2019-05-02T00:26:24.651Z,87126.81
2019-05-02T00:28:49.919Z,87116.98
2019-05-02T00:31:16.869Z,87121.48
2019-05-02T00:33:43.761Z,87110.87
2019-05-02T00:36:10.507Z,87112.20
2019-05-02T00:38:38.459Z,87113.44
2019-05-02T00:41:05.847Z,87104.85
2019-05-02T00:43:34.446Z,87109.84
2019-05-02T00:46:01.152Z,87106.34
2019-05-02T00:48:27.966Z,87105.87
2019-05-02T00:50:54.713Z,87100.94
2019-05-02T00:53:21.682Z,87098.68
2019-05-02T00:55:48.413Z,87091.47
2019-05-02T00:58:15.163Z,87093.76
2019-05-02T01:00:42.030Z,87093.34
2019-05-02T01:03:10.996Z,87097.16
2019-05-02T01:05:38.473Z,87104.02
2019-05-02T01:08:05.865Z,87098.17
2019-05-02T01:10:32.599Z,87100.11
2019-05-02T01:12:59.471Z,87098.39
2019-05-02T01:15:26.183Z,87101.73
2019-05-02T01:17:52.925Z,87100.42
2019-05-02T01:20:22.224Z,87095.99
2019-05-02T01:22:52.278Z,87098.23
2019-05-02T01:25:17.262Z,87099.25
2019-05-02T01:27:44.228Z,87099.02
2019-05-02T01:30:11.467Z,87096.00
2019-05-02T01:32:38.200Z,87098.26
2019-05-02T01:35:05.797Z,87095.23
2019-05-02T01:37:32.542Z,87097.52
2019-05-02T01:39:59.306Z,87101.62
2019-05-02T01:42:39.055Z,87101.21
2019-05-02T01:44:54.614Z,87098.38
2019-05-02T01:47:21.364Z,87098.53
2019-05-02T01:49:52.127Z,87101.88
2019-05-02T01:52:18.935Z,87097.36
2019-05-02T01:54:46.093Z,87095.95
2019-05-02T01:57:13.851Z,87102.80
2019-05-02T01:59:40.633Z,87102.16
2019-05-02T02:02:07.471Z,87095.36
2019-05-02T02:04:34.421Z,87098.30
2019-05-02T02:07:01.133Z,87093.64
2019-05-02T02:09:27.893Z,87094.94
2019-05-02T02:11:54.665Z,87098.55
2019-05-02T02:14:21.372Z,87098.17
2019-05-02T02:16:48.123Z,87098.13
2019-05-02T02:19:14.981Z,87098.66
2019-05-02T02:21:42.950Z,87095.11
2019-05-02T02:24:09.941Z,87094.34
2019-05-02T02:26:36.828Z,87097.61
2019-05-02T02:29:07.902Z,87093.16
2019-05-02T02:31:32.299Z,87097.53
2019-05-02T02:33:59.047Z,87089.25
2019-05-02T02:36:31.561Z,87090.02
2019-05-02T02:38:54.471Z,87089.13
2019-05-02T02:41:21.183Z,87090.02
2019-05-02T02:43:47.954Z,87087.88
2019-05-02T02:46:14.825Z,87083.13
2019-05-02T02:48:42.792Z,87083.45
2019-05-02T02:51:09.685Z,87082.38
2019-05-02T02:53:36.577Z,87074.37
2019-05-02T02:56:06.615Z,87080.89
2019-05-02T02:58:44.637Z,87080.93
2019-05-02T03:01:02.464Z,87079.28
2019-05-02T03:03:30.632Z,87075.92
2019-05-02T03:05:58.809Z,87078.64
2019-05-02T03:08:26.740Z,87073.23
2019-05-02T03:10:53.660Z,87074.23
2019-05-02T03:13:21.687Z,87075.31
2019-05-02T03:15:49.355Z,87065.32
2019-05-02T03:18:16.109Z,87071.30
2019-05-02T03:20:42.869Z,87069.57
2019-05-02T03:23:15.174Z,87065.32
2019-05-02T03:25:49.695Z,87061.10
2019-05-02T03:28:17.363Z,87061.22
2019-05-02T03:30:37.180Z,87053.73
2019-05-02T03:33:10.365Z,87054.38
2019-05-02T03:35:42.897Z,87058.63
2019-05-02T03:38:01.214Z,87056.55
2019-05-02T03:40:32.209Z,87059.16
2019-05-02T03:42:57.424Z,87055.91
2019-05-02T03:45:24.340Z,87056.27
2019-05-02T03:47:51.217Z,87054.13
2019-05-02T03:50:31.219Z,87050.76
2019-05-02T03:52:46.694Z,87057.83
2019-05-02T03:55:13.741Z,87055.00
2019-05-02T03:57:42.145Z,87053.93
2019-05-02T04:00:13.703Z,87052.75
2019-05-02T04:02:38.664Z,87048.54
2019-05-02T04:05:05.615Z,87047.36
2019-05-02T04:07:39.837Z,87050.72
2019-05-02T04:10:03.396Z,87046.59
2019-05-02T04:12:32.740Z,87045.83
2019-05-02T04:14:58.822Z,87050.95
2019-05-02T04:17:29.094Z,87051.72
2019-05-02T04:19:55.112Z,87047.70
2019-05-02T04:22:22.245Z,87044.11
2019-05-02T04:24:54.376Z,87046.70
2019-05-02T04:27:18.308Z,87038.97
2019-05-02T04:29:45.144Z,87037.02
2019-05-02T04:32:14.348Z,87043.75
2019-05-02T04:34:40.595Z,87043.87
2019-05-02T04:37:07.385Z,87047.47
2019-05-02T04:39:34.158Z,87049.42
2019-05-02T04:42:05.212Z,87055.20
2019-05-02T04:44:43.676Z,87055.93
2019-05-02T04:47:02.690Z,87047.70
2019-05-02T04:49:31.708Z,87054.31
2019-05-02T04:52:01.880Z,87059.59
2019-05-02T04:54:31.465Z,87059.41
2019-05-02T04:56:55.336Z,87059.52
2019-05-02T04:59:23.027Z,87056.19
2019-05-02T05:01:57.413Z,87059.33
2019-05-02T05:04:18.633Z,87062.25
2019-05-02T05:06:54.826Z,87062.81
2019-05-02T05:09:15.081Z,87058.91
2019-05-02T05:11:42.033Z,87059.75
2019-05-02T05:14:10.047Z,87061.05
2019-05-02T05:16:37.659Z,87059.41
2019-05-02T05:19:07.494Z,87059.41
2019-05-02T05:21:34.068Z,87063.01
2019-05-02T05:24:01.552Z,87068.24
2019-05-02T05:26:28.626Z,87062.16
2019-05-02T05:28:55.521Z,87063.89
2019-05-02T05:31:23.811Z,87060.75
2019-05-02T05:33:50.769Z,87061.70
2019-05-02T05:36:19.712Z,87061.59
2019-05-02T05:38:47.832Z,87060.94
2019-05-02T05:41:17.640Z,87058.64
2019-05-02T05:43:44.890Z,87052.94
2019-05-02T05:46:13.169Z,87060.39
2019-05-02T05:48:40.879Z,87056.33
2019-05-02T05:51:11.812Z,87054.90
2019-05-02T05:53:37.500Z,87048.52
2019-05-02T05:56:04.536Z,87051.59
2019-05-02T05:58:31.292Z,87052.37
2019-05-02T06:00:58.467Z,87045.79
2019-05-02T06:03:25.164Z,87040.14
2019-05-02T06:05:51.897Z,87039.17
2019-05-02T06:08:19.931Z,87040.22
2019-05-02T06:10:46.741Z,87035.13
2019-05-02T06:13:13.434Z,87035.62
2019-05-02T06:15:40.465Z,87038.24
2019-05-02T06:18:07.326Z,87032.74
2019-05-02T06:20:34.207Z,87034.69
2019-05-02T06:23:01.340Z,87024.84
2019-05-02T06:25:34.202Z,87028.81
2019-05-02T06:28:00.169Z,87023.45
2019-05-02T06:30:27.048Z,87022.00
2019-05-02T06:32:54.956Z,87017.02
2019-05-02T06:35:22.541Z,87018.77
2019-05-02T06:37:50.131Z,87012.86
2019-05-02T06:40:17.792Z,87012.12
2019-05-02T06:42:44.660Z,87010.30
2019-05-02T06:45:11.870Z,87011.81
2019-05-02T06:47:41.564Z,87013.48
2019-05-02T06:50:07.936Z,87009.70
2019-05-02T06:52:34.720Z,87010.66
2019-05-02T06:55:01.918Z,87014.55
2019-05-02T06:57:28.675Z,87010.81
2019-05-02T06:59:56.487Z,87008.70
2019-05-02T07:02:23.442Z,87005.89
2019-05-02T07:04:54.733Z,87001.55
2019-05-02T07:07:18.880Z,87000.73
2019-05-02T07:09:45.610Z,86996.59
2019-05-02T07:12:14.720Z,86999.56
2019-05-02T07:14:41.198Z,86996.86
2019-05-02T07:17:08.044Z,86996.03
2019-05-02T07:19:34.906Z,86997.24
2019-05-02T07:22:04.224Z,86990.00
2019-05-02T07:24:31.125Z,86982.63
2019-05-02T07:27:01.988Z,86988.50
2019-05-02T07:29:27.563Z,86985.41
2019-05-02T07:31:54.300Z,86977.02
2019-05-02T07:34:21.162Z,86975.61
2019-05-02T07:36:47.912Z,86968.92
2019-05-02T07:39:14.817Z,86969.56
2019-05-02T07:41:41.569Z,86969.09
2019-05-02T07:44:08.310Z,86964.29
2019-05-02T07:46:35.177Z,86957.38
2019-05-02T07:49:01.912Z,86957.98
2019-05-02T07:51:28.658Z,86956.87
2019-05-02T07:53:56.016Z,86952.59
2019-05-02T07:56:22.822Z,86956.94
2019-05-02T07:58:49.560Z,86956.57
2019-05-02T08:01:16.410Z,86954.16
2019-05-02T08:03:43.143Z,86955.84
2019-05-02T08:06:09.879Z,86945.91
2019-05-02T08:08:36.660Z,86944.40
2019-05-02T08:11:03.793Z,86944.59
2019-05-02T08:13:31.563Z,86942.89
2019-05-02T08:15:58.293Z,86934.64
2019-05-02T08:18:29.810Z,86937.28
2019-05-02T08:20:55.984Z,86942.91
2019-05-02T08:23:26.106Z,86937.84
2019-05-02T08:25:50.720Z,86942.33
2019-05-02T08:28:17.910Z,86950.02
2019-05-02T08:30:44.751Z,86945.88
2019-05-02T08:33:11.516Z,86947.91
2019-05-02T08:35:38.272Z,86947.31
2019-05-02T08:38:05.023Z,86950.67
2019-05-02T08:40:31.883Z,86954.58
2019-05-02T08:42:58.635Z,86946.28
2019-05-02T08:45:25.372Z,86948.86
2019-05-02T08:47:52.279Z,86942.97
2019-05-02T08:50:19.031Z,86947.48
2019-05-02T08:52:48.042Z,86944.59
2019-05-02T08:55:14.522Z,86939.44
2019-05-02T08:57:41.266Z,86937.15
2019-05-02T09:00:10.907Z,86931.63
2019-05-02T09:02:41.759Z,86929.51
2019-05-02T09:05:06.579Z,86925.50
2019-05-02T09:07:36.994Z,86933.94
2019-05-02T09:10:05.846Z,86932.16
2019-05-02T09:12:36.955Z,86928.16
2019-05-02T09:15:02.718Z,86927.73
2019-05-02T09:17:37.693Z,86919.91
2019-05-02T09:20:02.454Z,86918.52
2019-05-02T09:22:26.851Z,86922.33
2019-05-02T09:24:53.621Z,86918.14
2019-05-02T09:27:22.294Z,86922.61
2019-05-02T09:29:49.169Z,86924.59
2019-05-02T09:32:17.086Z,86917.77
2019-05-02T09:34:44.467Z,86911.14
2019-05-02T09:37:12.093Z,86909.95
2019-05-02T09:39:38.874Z,86903.51
2019-05-02T09:42:06.726Z,86903.62
2019-05-02T09:44:34.197Z,86900.36
2019-05-02T09:47:02.335Z,86898.02
2019-05-02T09:49:29.353Z,86895.30
2019-05-02T09:51:59.472Z,86898.77
2019-05-02T09:54:24.595Z,86895.48
2019-05-02T09:56:52.374Z,86894.50
2019-05-02T09:59:27.706Z,86889.34
2019-05-02T10:01:47.960Z,86887.88
2019-05-02T10:04:14.857Z,86884.37
2019-05-02T10:06:42.916Z,86881.30
2019-05-02T10:09:11.932Z,86881.26
2019-05-02T10:11:38.623Z,86869.91
2019-05-02T10:14:05.573Z,86869.00
2019-05-02T10:16:32.397Z,86862.75
2019-05-02T10:19:00.326Z,86863.79
2019-05-02T10:21:27.822Z,86859.38
2019-05-02T10:23:59.430Z,86850.56
2019-05-02T10:26:24.573Z,86851.14
2019-05-02T10:28:53.389Z,86855.63
2019-05-02T10:31:21.839Z,86846.77
2019-05-02T10:33:48.679Z,86850.58
2019-05-02T10:36:19.631Z,86845.33
2019-05-02T10:38:44.063Z,86847.66
2019-05-02T10:41:11.979Z,86839.00
2019-05-02T10:43:38.824Z,86838.20
2019-05-02T10:46:05.817Z,86833.63
2019-05-02T10:48:33.176Z,86830.77
2019-05-02T10:51:01.685Z,86826.42
2019-05-02T10:53:28.709Z,86823.16
2019-05-02T10:55:55.428Z,86822.13
2019-05-02T10:58:25.836Z,86824.33
2019-05-02T11:00:52.308Z,86811.80
2019-05-02T11:03:19.547Z,86816.80
2019-05-02T11:05:46.239Z,86806.53
2019-05-02T11:08:13.006Z,86801.16
2019-05-02T11:10:39.724Z,86799.06
2019-05-02T11:13:06.639Z,86793.80
2019-05-02T11:15:33.598Z,86796.62
2019-05-02T11:18:02.173Z,86790.30
2019-05-02T11:20:28.954Z,86780.66
2019-05-02T11:22:55.821Z,86777.94
2019-05-02T11:25:22.770Z,86781.11
2019-05-02T11:27:49.974Z,86777.48
2019-05-02T11:30:21.502Z,86765.40
2019-05-02T11:32:45.532Z,86764.06
2019-05-02T11:35:12.320Z,86761.84
2019-05-02T11:37:39.029Z,86760.03
2019-05-02T11:40:08.435Z,86768.73
2019-05-02T11:42:35.682Z,86767.15
2019-05-02T11:45:05.570Z,86765.83
2019-05-02T11:47:32.894Z,86761.66
2019-05-02T11:49:59.723Z,86751.59
2019-05-02T11:52:27.584Z,86751.30
2019-05-02T11:54:55.060Z,86747.34
2019-05-02T11:57:28.671Z,86744.73
2019-05-02T11:59:52.107Z,86736.76
2019-05-02T12:02:19.137Z,86744.88
2019-05-02T12:04:47.233Z,86739.59
2019-05-02T12:07:14.410Z,86736.34
2019-05-02T12:09:44.280Z,86733.56
2019-05-02T12:12:09.715Z,86729.23
2019-05-02T12:14:36.617Z,86729.69
2019-05-02T12:17:03.465Z,86720.02
2019-05-02T12:19:32.139Z,86722.86
2019-05-02T12:21:58.868Z,86723.16
2019-05-02T12:24:25.597Z,86722.25
2019-05-02T12:26:52.902Z,86713.63
2019-05-02T12:29:21.727Z,86710.49
2019-05-02T12:31:54.761Z,86714.67
2019-05-02T12:34:16.949Z,86705.45
2019-05-02T12:36:43.673Z,86698.02
2019-05-02T12:39:12.484Z,86700.84
2019-05-02T12:41:39.040Z,86703.81
2019-05-02T12:44:06.496Z,86699.95
2019-05-02T12:46:33.206Z,86696.09
2019-05-02T12:48:59.982Z,86702.33
2019-05-02T12:51:26.714Z,86698.61
2019-05-02T12:53:53.541Z,86697.73
2019-05-02T12:56:20.280Z,86692.06
2019-05-02T12:58:47.037Z,86689.23
2019-05-02T13:01:13.932Z,86688.62
2019-05-02T13:03:40.666Z,86685.33
2019-05-02T13:06:07.526Z,86691.27
2019-05-02T13:08:34.388Z,86681.30
2019-05-02T13:11:02.169Z,86687.53
2019-05-02T13:13:29.695Z,86686.34
2019-05-02T13:15:56.563Z,86682.78
2019-05-02T13:18:26.889Z,86677.44
2019-05-02T13:20:52.816Z,86672.05
2019-05-02T13:23:19.797Z,86666.18
2019-05-02T13:25:46.521Z,86670.81
2019-05-02T13:28:17.018Z,86664.83
2019-05-02T13:30:46.564Z,86664.18
2019-05-02T13:33:12.752Z,86664.77
2019-05-02T13:35:39.884Z,86662.39
2019-05-02T13:38:07.124Z,86654.49
2019-05-02T13:40:38.146Z,86647.16
2019-05-02T13:43:05.034Z,86655.58
2019-05-02T13:45:32.422Z,86647.55
2019-05-02T13:48:00.353Z,86648.77
2019-05-02T13:50:27.078Z,86642.33
2019-05-02T13:52:57.843Z,86644.90
2019-05-02T13:55:23.678Z,86644.87
2019-05-02T13:57:52.827Z,86649.70
2019-05-02T14:00:19.353Z,86641.50
2019-05-02T14:02:46.096Z,86637.54
2019-05-02T14:05:15.081Z,86628.38
2019-05-02T14:07:42.875Z,86623.55
2019-05-02T14:10:11.956Z,86623.70
2019-05-02T14:12:38.898Z,86619.31
2019-05-02T14:15:06.006Z,86615.06
2019-05-02T14:17:32.772Z,86620.43
2019-05-02T14:20:10.001Z,86625.59
2019-05-02T14:22:28.138Z,86620.10
2019-05-02T14:24:55.815Z,86611.87
2019-05-02T14:27:22.584Z,86610.40
2019-05-02T14:29:49.312Z,86612.86
2019-05-02T14:32:23.456Z,86607.74
2019-05-02T14:34:44.626Z,86613.08
2019-05-02T14:37:11.888Z,86599.17
2019-05-02T14:39:38.850Z,86595.92
2019-05-02T14:42:05.553Z,86596.80
2019-05-02T14:45:00.381Z,86591.19
2019-05-02T14:47:02.209Z,86585.14
2019-05-02T14:49:28.990Z,86587.80
2019-05-02T14:51:57.255Z,86598.22
2019-05-02T14:54:24.416Z,86595.01
2019-05-02T14:56:52.163Z,86597.72
2019-05-02T14:59:19.955Z,86598.45
2019-05-02T15:01:47.202Z,86597.45
2019-05-02T15:04:13.934Z,86597.58
2019-05-02T15:06:43.531Z,86596.17
2019-05-02T15:09:11.939Z,86602.64
2019-05-02T15:11:38.190Z,86600.30
2019-05-02T15:14:04.952Z,86599.96
2019-05-02T15:16:40.400Z,86595.88
2019-05-02T15:19:02.152Z,86595.44
2019-05-02T15:21:28.870Z,86594.56
2019-05-02T15:23:57.821Z,86606.59
2019-05-02T15:26:26.247Z,86602.95
2019-05-02T15:28:52.700Z,86605.52
2019-05-02T15:31:24.244Z,86597.95
2019-05-02T15:33:48.120Z,86598.67
2019-05-02T15:36:14.870Z,86604.51
2019-05-02T15:38:47.135Z,86603.88
2019-05-02T15:41:12.770Z,86598.89
2019-05-02T15:43:39.294Z,86594.59
2019-05-02T15:46:07.444Z,86588.83
2019-05-02T15:48:34.193Z,86587.54
2019-05-02T15:51:06.171Z,86586.38
2019-05-02T15:53:29.610Z,86584.73
2019-05-02T15:55:56.523Z,86589.74
2019-05-02T15:58:27.665Z,86591.09
2019-05-02T16:00:52.052Z,86596.40
2019-05-02T16:03:19.916Z,86598.97
2019-05-02T16:05:46.993Z,86593.87
2019-05-02T16:08:13.712Z,86592.63
2019-05-02T16:10:42.742Z,86590.08
2019-05-02T16:13:15.722Z,86592.34
2019-05-02T16:15:37.621Z,86597.92
2019-05-02T16:18:05.333Z,86595.89
2019-05-02T16:20:32.424Z,86594.77
2019-05-02T16:23:01.920Z,86590.53
2019-05-02T16:25:28.953Z,86592.11
2019-05-02T16:28:02.656Z,86593.55
2019-05-02T16:30:27.988Z,86591.98
2019-05-02T16:32:54.941Z,86588.68
2019-05-02T16:35:22.174Z,86584.20
2019-05-02T16:37:54.083Z,86592.31
2019-05-02T16:40:23.856Z,86591.78
2019-05-02T16:42:47.181Z,86590.28
2019-05-02T16:45:14.686Z,86588.98
2019-05-02T16:47:42.258Z,86593.31
2019-05-02T16:50:12.847Z,86590.51
2019-05-02T16:52:43.744Z,86587.09
2019-05-02T16:55:13.682Z,86592.81
2019-05-02T16:57:39.768Z,86590.32
2019-05-02T17:00:11.381Z,86584.77
2019-05-02T17:02:43.618Z,86578.37
2019-05-02T17:05:09.206Z,86575.47
2019-05-02T17:07:39.422Z,86585.75
2019-05-02T17:10:08.478Z,86581.75
2019-05-02T17:12:39.204Z,86581.34
2019-05-02T17:15:07.735Z,86590.95
2019-05-02T17:17:42.409Z,86594.89
2019-05-02T17:20:12.940Z,86597.30
2019-05-02T17:22:39.404Z,86598.56
2019-05-02T17:25:06.473Z,86600.55
2019-05-02T17:27:33.226Z,86609.80
2019-05-02T17:30:12.065Z,86607.05
2019-05-02T17:32:38.932Z,86612.05
2019-05-02T17:35:14.391Z,86611.31
2019-05-02T17:37:48.117Z,86620.49
2019-05-02T17:40:08.917Z,86621.20
2019-05-02T17:42:35.709Z,86617.40
2019-05-02T17:45:06.360Z,86614.39
2019-05-02T17:47:36.244Z,86623.22
2019-05-02T17:50:07.263Z,86625.55
2019-05-02T17:52:34.976Z,86631.18
2019-05-02T17:55:03.159Z,86632.73
2019-05-02T17:57:33.452Z,86636.77
2019-05-02T17:59:58.686Z,86647.72
2019-05-02T18:02:25.401Z,86644.89
2019-05-02T18:04:55.847Z,86661.19
2019-05-02T18:07:25.285Z,86654.23
2019-05-02T18:09:52.005Z,86645.72
2019-05-02T18:12:18.590Z,86644.43
2019-05-02T18:14:45.469Z,86646.59
2019-05-02T18:17:12.726Z,86648.70
2019-05-02T18:19:39.724Z,86649.30
2019-05-02T18:22:07.143Z,86651.34
2019-05-02T18:24:37.369Z,86650.66
2019-05-02T18:27:03.765Z,86653.27
2019-05-02T18:29:30.485Z,86655.95
2019-05-02T18:31:57.207Z,86662.91
2019-05-02T18:34:25.252Z,86659.75
2019-05-02T18:36:52.449Z,86655.60
2019-05-02T18:39:19.301Z,86658.92
2019-05-02T18:41:46.457Z,86652.38
2019-05-02T18:44:17.070Z,86659.14
2019-05-02T18:46:42.879Z,86658.45
2019-05-02T18:49:09.724Z,86654.34
2019-05-02T18:51:36.568Z,86659.18
2019-05-02T18:54:07.500Z,86663.33
2019-05-02T18:56:35.587Z,86667.08
2019-05-02T18:59:02.634Z,86668.97
2019-05-02T19:01:29.560Z,86671.98
2019-05-02T19:03:56.428Z,86666.95
2019-05-02T19:06:23.138Z,86672.05
2019-05-02T19:08:55.374Z,86668.59
2019-05-02T19:11:22.254Z,86664.84
2019-05-02T19:13:52.506Z,86664.78
2019-05-02T19:16:24.299Z,86667.42
2019-05-02T19:18:57.257Z,86673.25
2019-05-02T19:21:26.371Z,86675.48
2019-05-02T19:23:51.802Z,86672.71
2019-05-02T19:26:18.762Z,86679.25
2019-05-02T19:28:45.881Z,86674.38
2019-05-02T19:31:12.670Z,86671.86
2019-05-02T19:33:50.145Z,86671.45
2019-05-02T19:36:24.404Z,86671.61
2019-05-02T19:38:45.560Z,86671.05
2019-05-02T19:41:12.303Z,86673.91
2019-05-02T19:43:45.735Z,86677.84
2019-05-02T19:46:07.750Z,86673.31
2019-05-02T19:48:36.890Z,86674.03
2019-05-02T19:51:03.660Z,86678.75
2019-05-02T19:53:32.282Z,86664.15
2019-05-02T19:56:01.494Z,86670.53
2019-05-02T19:58:28.785Z,86674.72
2019-05-02T20:00:55.815Z,86673.92
2019-05-02T20:03:25.964Z,86676.30
2019-05-02T20:05:51.912Z,86677.56
2019-05-02T20:08:21.450Z,86675.52
2019-05-02T20:10:52.426Z,86675.20
2019-05-02T20:13:20.274Z,86676.11
2019-05-02T20:15:44.757Z,86669.59
2019-05-02T20:18:11.967Z,86674.16
2019-05-02T20:20:46.288Z,86674.50
2019-05-02T20:23:16.225Z,86679.46
2019-05-02T20:25:42.612Z,86676.63
2019-05-02T20:28:09.778Z,86676.34
2019-05-02T20:30:36.618Z,86670.65
2019-05-02T20:33:05.244Z,86670.14
2019-05-02T20:35:32.010Z,86673.61
2019-05-02T20:37:59.008Z,86666.80
2019-05-02T20:40:32.134Z,86662.92
2019-05-02T20:42:59.400Z,86669.55
2019-05-02T20:45:26.624Z,86668.65
2019-05-02T20:47:53.335Z,86657.17
2019-05-02T20:50:20.080Z,86664.53
2019-05-02T20:52:46.875Z,86666.97
2019-05-02T20:55:13.576Z,86664.04
2019-05-02T20:57:42.033Z,86659.14
2019-05-02T21:00:23.614Z,86652.16
2019-05-02T21:02:51.890Z,86652.72
2019-05-02T21:05:21.618Z,86655.58
2019-05-02T21:07:48.348Z,86652.80
2019-05-02T21:10:15.409Z,86645.45
2019-05-02T21:12:42.451Z,86649.95
2019-05-02T21:15:09.167Z,86647.58
2019-05-02T21:17:36.065Z,86645.50
2019-05-02T21:20:05.191Z,86639.81
2019-05-02T21:22:32.835Z,86642.50
2019-05-02T21:24:59.558Z,86628.91
2019-05-02T21:27:26.324Z,86631.14
2019-05-02T21:29:53.195Z,86631.34
2019-05-02T21:32:19.910Z,86632.09
2019-05-02T21:34:46.656Z,86627.91
2019-05-02T21:37:14.081Z,86636.40
2019-05-02T21:39:42.487Z,86637.37
2019-05-02T21:42:09.414Z,86630.02
2019-05-02T21:44:36.167Z,86629.61
2019-05-02T21:47:05.749Z,86629.39
2019-05-02T21:49:32.117Z,86632.79
2019-05-02T21:51:58.913Z,86629.61
2019-05-02T21:54:25.693Z,86629.09
2019-05-02T21:56:52.447Z,86625.66
2019-05-02T21:59:19.194Z,86621.70
2019-05-02T22:01:47.583Z,86619.81
2019-05-02T22:04:14.330Z,86618.47
2019-05-02T22:06:42.713Z,86616.61
2019-05-02T22:09:09.784Z,86615.31
2019-05-02T22:11:37.034Z,86620.07
2019-05-02T22:14:04.814Z,86612.77
2019-05-02T22:16:32.670Z,86611.29
2019-05-02T22:18:59.714Z,86614.66
2019-05-02T22:21:26.457Z,86608.86
2019-05-02T22:23:53.210Z,86610.13
2019-05-02T22:26:21.996Z,86615.00
2019-05-02T22:28:48.512Z,86609.56
2019-05-02T22:31:15.384Z,86611.45
2019-05-02T22:33:44.564Z,86610.19
2019-05-02T22:36:12.333Z,86607.92
2019-05-02T22:38:39.272Z,86605.14
2019-05-02T22:41:06.007Z,86605.14
2019-05-02T22:43:32.787Z,86606.46
2019-05-02T22:45:59.637Z,86613.06
2019-05-02T22:48:26.382Z,86605.14
2019-05-02T22:50:53.091Z,86606.67
2019-05-02T22:53:21.599Z,86604.44
2019-05-02T22:55:48.324Z,86603.90
2019-05-02T22:58:15.046Z,86603.19
2019-05-02T23:00:41.832Z,86602.63
2019-05-02T23:03:08.570Z,86603.76
2019-05-02T23:05:35.451Z,86602.09
2019-05-02T23:08:02.373Z,86603.24
2019-05-02T23:10:29.124Z,86599.09
2019-05-02T23:12:56.014Z,86605.12
2019-05-02T23:15:22.723Z,86601.66
2019-05-02T23:17:49.472Z,86606.77
2019-05-02T23:20:16.390Z,86603.34
2019-05-02T23:22:43.117Z,86600.33
2019-05-02T23:25:12.005Z,86611.06
2019-05-02T23:27:39.891Z,86607.78
2019-05-02T23:30:09.413Z,86605.08
2019-05-02T23:32:36.293Z,86602.61
2019-05-02T23:35:07.310Z,86603.56
2019-05-02T23:37:33.448Z,86598.14
2019-05-02T23:40:02.033Z,86593.43
2019-05-02T23:42:28.862Z,86595.66
2019-05-02T23:44:55.622Z,86594.91
2019-05-02T23:47:22.576Z,86591.92
2019-05-02T23:49:49.267Z,86592.67
2019-05-02T23:52:15.980Z,86594.34
2019-05-02T23:54:49.926Z,86587.41
2019-05-02T23:57:12.136Z,86587.05
2019-05-02T23:59:39.055Z,86579.04
